createdAt,value
2023-04-27T00:01:46.991Z,100305.91
2023-04-27T00:04:14.741Z,100307.38
2023-04-27T00:06:42.922Z,100315.75
2023-04-27T00:09:10.185Z,100314.63
2023-04-27T00:11:37.431Z,100308.72
2023-04-27T00:14:04.711Z,100322.63
2023-04-27T00:16:31.968Z,100322.91
2023-04-27T00:18:59.230Z,100318.66
2023-04-27T00:21:27.064Z,100313.56
2023-04-27T00:23:54.704Z,100311.97
2023-04-27T00:26:22.576Z,100304.66
2023-04-27T00:28:51.659Z,100310.69
2023-04-27T00:31:18.976Z,100310.16
2023-04-27T00:33:46.285Z,100312.91
2023-04-27T00:36:16.637Z,100315.84
2023-04-27T00:38:43.906Z,100315.66
2023-04-27T00:41:11.133Z,100317.41
2023-04-27T00:43:42.198Z,100316.19
2023-04-27T00:46:09.654Z,100324.22
2023-04-27T00:48:37.458Z,100317.28
2023-04-27T00:51:05.583Z,100315.31
2023-04-27T00:53:34.244Z,100323.06
2023-04-27T00:56:01.537Z,100321.09
2023-04-27T00:58:29.542Z,100312.97
2023-04-27T01:00:56.808Z,100325.06
2023-04-27T01:03:24.225Z,100326.97
2023-04-27T01:05:51.874Z,100322.53
2023-04-27T01:08:19.124Z,100320.16
2023-04-27T01:10:46.415Z,100321.41
2023-04-27T01:13:13.681Z,100332.06
2023-04-27T01:15:41.188Z,100322.31
2023-04-27T01:18:10.306Z,100315.19
2023-04-27T01:20:38.864Z,100323.94
2023-04-27T01:23:06.462Z,100323.72
2023-04-27T01:25:33.844Z,100325.50
2023-04-27T01:28:02.957Z,100328.09
2023-04-27T01:30:30.675Z,100323.72
2023-04-27T01:32:59.478Z,100322.94
2023-04-27T01:35:28.343Z,100316.88
2023-04-27T01:38:00.326Z,100319.88
2023-04-27T01:40:27.674Z,100318.22
2023-04-27T01:42:54.986Z,100319.28
2023-04-27T01:45:22.405Z,100310.88
2023-04-27T01:47:52.846Z,100317.50
2023-04-27T01:50:21.131Z,100319.41
2023-04-27T01:52:48.485Z,100329.69
2023-04-27T01:55:15.803Z,100331.41
2023-04-27T01:57:43.291Z,100332.28
2023-04-27T02:00:11.168Z,100329.72
2023-04-27T02:02:53.762Z,100307.22
2023-04-27T02:05:21.169Z,100332.69
2023-04-27T02:07:49.465Z,100320.22
2023-04-27T02:10:16.841Z,100333.88
2023-04-27T02:12:45.668Z,100339.94
2023-04-27T02:15:12.965Z,100328.34
2023-04-27T02:17:40.249Z,100343.41
2023-04-27T02:20:07.956Z,100346.38
2023-04-27T02:22:35.251Z,100351.13
2023-04-27T02:25:02.994Z,100347.69
2023-04-27T02:27:30.563Z,100353.81
2023-04-27T02:29:58.744Z,100349.56
2023-04-27T02:32:27.216Z,100351.13
2023-04-27T02:34:55.408Z,100340.63
2023-04-27T02:37:22.845Z,100346.78
2023-04-27T02:39:50.097Z,100354.59
2023-04-27T02:42:17.372Z,100351.94
2023-04-27T02:44:44.685Z,100353.75
2023-04-27T02:47:12.779Z,100353.81
2023-04-27T02:49:40.200Z,100346.19
2023-04-27T02:52:07.885Z,100348.06
2023-04-27T02:54:35.207Z,100357.09
2023-04-27T02:57:02.549Z,100363.13
2023-04-27T02:59:29.819Z,100360.84
2023-04-27T03:01:57.103Z,100359.69
2023-04-27T03:04:24.467Z,100366.22
2023-04-27T03:06:51.826Z,100364.72
2023-04-27T03:09:19.105Z,100355.41
2023-04-27T03:11:46.589Z,100359.66
2023-04-27T03:14:13.953Z,100366.50
2023-04-27T03:16:41.296Z,100372.72
2023-04-27T03:19:08.640Z,100371.16
2023-04-27T03:21:36.151Z,100375.91
2023-04-27T03:24:03.849Z,100372.72
2023-04-27T03:26:31.664Z,100377.88
2023-04-27T03:28:58.959Z,100366.94
2023-04-27T03:31:29.115Z,100379.66
2023-04-27T03:33:57.108Z,100383.91
2023-04-27T03:36:24.394Z,100390.34
2023-04-27T03:38:51.644Z,100386.34
2023-04-27T03:41:19.183Z,100402.63
2023-04-27T03:43:47.650Z,100401.69
2023-04-27T03:46:15.015Z,100403.03
2023-04-27T03:48:43.981Z,100401.50
2023-04-27T03:51:11.545Z,100403.78
2023-04-27T03:53:39.030Z,100403.72
2023-04-27T03:56:07.951Z,100400.03
2023-04-27T03:58:35.252Z,100391.72
2023-04-27T04:01:10.227Z,100406.97
2023-04-27T04:03:37.918Z,100402.63
2023-04-27T04:06:08.891Z,100414.81
2023-04-27T04:08:36.232Z,100417.50
2023-04-27T04:11:03.946Z,100415.81
2023-04-27T04:13:31.761Z,100399.88
2023-04-27T04:16:08.929Z,100420.59
2023-04-27T04:18:36.640Z,100421.59
2023-04-27T04:21:04.729Z,100420.00
2023-04-27T04:23:33.984Z,100431.81
2023-04-27T04:26:02.291Z,100425.88
2023-04-27T04:28:33.475Z,100441.94
2023-04-27T04:31:05.981Z,100436.28
2023-04-27T04:33:33.845Z,100426.84
2023-04-27T04:36:04.365Z,100439.84
2023-04-27T04:38:32.978Z,100442.66
2023-04-27T04:41:01.195Z,100449.88
2023-04-27T04:43:31.573Z,100448.00
2023-04-27T04:45:59.261Z,100442.53
2023-04-27T04:48:26.534Z,100447.72
2023-04-27T04:50:56.004Z,100458.72
2023-04-27T04:53:23.920Z,100450.31
2023-04-27T04:55:51.159Z,100459.66
2023-04-27T04:58:18.514Z,100450.44
2023-04-27T05:00:45.873Z,100462.22
2023-04-27T05:03:13.328Z,100461.25
2023-04-27T05:05:41.006Z,100465.00
2023-04-27T05:08:08.327Z,100458.63
2023-04-27T05:10:35.600Z,100470.72
2023-04-27T05:13:04.296Z,100480.75
2023-04-27T05:15:33.163Z,100479.66
2023-04-27T05:18:00.429Z,100488.28
2023-04-27T05:20:27.693Z,100485.53
2023-04-27T05:22:54.942Z,100488.59
2023-04-27T05:25:22.200Z,100489.38
2023-04-27T05:27:49.413Z,100491.00
2023-04-27T05:30:16.666Z,100494.84
2023-04-27T05:32:44.104Z,100492.19
2023-04-27T05:35:11.422Z,100501.59
2023-04-27T05:37:38.708Z,100487.06
2023-04-27T05:40:09.274Z,100493.91
2023-04-27T05:42:36.559Z,100492.03
2023-04-27T05:45:04.194Z,100502.56
2023-04-27T05:47:31.527Z,100508.41
2023-04-27T05:49:58.897Z,100502.44
2023-04-27T05:52:30.888Z,100494.38
2023-04-27T05:55:01.200Z,100500.50
2023-04-27T05:57:28.405Z,100503.84
2023-04-27T05:59:55.749Z,100499.47
2023-04-27T06:02:23.231Z,100508.88
2023-04-27T06:04:50.745Z,100512.59
2023-04-27T06:07:18.404Z,100505.69
2023-04-27T06:09:45.823Z,100508.69
2023-04-27T06:12:13.117Z,100485.63
2023-04-27T06:14:43.245Z,100496.88
2023-04-27T06:17:10.585Z,100516.56
2023-04-27T06:19:37.910Z,100523.84
2023-04-27T06:22:05.236Z,100519.13
2023-04-27T06:24:32.568Z,100526.06
2023-04-27T06:26:59.814Z,100520.06
2023-04-27T06:29:27.078Z,100533.06
2023-04-27T06:31:54.375Z,100527.22
2023-04-27T06:34:21.791Z,100530.91
2023-04-27T06:36:49.094Z,100531.50
2023-04-27T06:39:16.682Z,100525.06
2023-04-27T06:41:44.099Z,100504.00
2023-04-27T06:44:19.262Z,100536.47
2023-04-27T06:46:46.676Z,100523.00
2023-04-27T06:49:14.310Z,100536.44
2023-04-27T06:51:41.827Z,100541.22
2023-04-27T06:54:09.077Z,100536.94
2023-04-27T06:56:36.353Z,100536.13
2023-04-27T06:59:03.693Z,100537.50
2023-04-27T07:01:31.123Z,100535.31
2023-04-27T07:03:58.601Z,100533.69
2023-04-27T07:06:26.895Z,100540.28
2023-04-27T07:08:54.202Z,100530.09
2023-04-27T07:11:21.545Z,100541.53
2023-04-27T07:13:48.819Z,100542.97
2023-04-27T07:16:16.482Z,100544.75
2023-04-27T07:18:43.927Z,100538.88
2023-04-27T07:21:11.207Z,100542.81
2023-04-27T07:23:40.364Z,100538.00
2023-04-27T07:26:08.127Z,100544.00
2023-04-27T07:28:35.546Z,100541.00
2023-04-27T07:31:04.967Z,100548.91
2023-04-27T07:33:35.406Z,100544.22
2023-04-27T07:36:02.992Z,100545.56
2023-04-27T07:38:31.323Z,100543.03
2023-04-27T07:40:59.031Z,100550.84
2023-04-27T07:43:26.804Z,100549.09
2023-04-27T07:45:55.738Z,100554.06
2023-04-27T07:48:23.782Z,100550.63
2023-04-27T07:50:51.203Z,100556.88
2023-04-27T07:53:18.743Z,100553.34
2023-04-27T07:55:46.131Z,100564.56
2023-04-27T07:58:13.438Z,100561.53
2023-04-27T08:00:40.982Z,100561.38
2023-04-27T08:03:09.316Z,100562.25
2023-04-27T08:05:37.087Z,100550.03
2023-04-27T08:08:05.604Z,100554.41
2023-04-27T08:10:33.034Z,100552.78
2023-04-27T08:13:00.363Z,100560.44
2023-04-27T08:15:27.660Z,100553.81
2023-04-27T08:17:54.980Z,100561.31
2023-04-27T08:20:22.353Z,100562.25
2023-04-27T08:22:51.118Z,100569.31
2023-04-27T08:25:18.447Z,100566.16
2023-04-27T08:27:45.796Z,100564.06
2023-04-27T08:30:13.366Z,100558.25
2023-04-27T08:32:41.068Z,100572.44
2023-04-27T08:35:08.620Z,100569.06
2023-04-27T08:37:38.084Z,100564.75
2023-04-27T08:40:08.277Z,100562.88
2023-04-27T08:42:35.948Z,100563.16
2023-04-27T08:45:04.586Z,100557.97
2023-04-27T08:47:41.898Z,100560.28
2023-04-27T08:50:11.746Z,100550.31
2023-04-27T08:52:44.792Z,100543.94
2023-04-27T08:55:15.714Z,100555.03
2023-04-27T08:57:57.452Z,100535.69
2023-04-27T09:00:25.981Z,100548.28
2023-04-27T09:02:53.675Z,100546.22
2023-04-27T09:05:22.653Z,100531.66
2023-04-27T09:08:08.088Z,100541.28
2023-04-27T09:10:49.097Z,100538.69
2023-04-27T09:13:16.748Z,100531.72
2023-04-27T09:15:48.705Z,100526.66
2023-04-27T09:18:22.892Z,100525.56
2023-04-27T09:20:51.932Z,100523.72
2023-04-27T09:23:46.565Z,100523.28
2023-04-27T09:26:19.804Z,100517.78
2023-04-27T09:28:48.490Z,100512.84
2023-04-27T09:31:16.224Z,100509.16
2023-04-27T09:33:44.068Z,100520.34
2023-04-27T09:36:11.574Z,100510.97
2023-04-27T09:38:38.914Z,100511.44
2023-04-27T09:41:06.287Z,100516.81
2023-04-27T09:43:33.795Z,100508.16
2023-04-27T09:46:01.745Z,100511.25
2023-04-27T09:48:29.169Z,100507.34
2023-04-27T09:50:56.618Z,100496.06
2023-04-27T09:53:28.743Z,100505.47
2023-04-27T09:56:28.380Z,100500.34
2023-04-27T09:59:02.218Z,100489.38
2023-04-27T10:01:50.292Z,100498.09
2023-04-27T10:04:42.781Z,100501.16
2023-04-27T10:07:12.863Z,100507.72
2023-04-27T10:09:50.319Z,100475.44
2023-04-27T10:12:22.727Z,100472.66
2023-04-27T10:14:56.347Z,100507.41
2023-04-27T10:17:30.519Z,100503.75
2023-04-27T10:20:01.380Z,100502.59
2023-04-27T10:22:47.720Z,100502.28
2023-04-27T10:25:19.366Z,100504.94
2023-04-27T10:27:53.867Z,100505.28
2023-04-27T10:30:22.444Z,100491.53
2023-04-27T10:32:59.615Z,100505.41
2023-04-27T10:35:36.753Z,100494.94
2023-04-27T10:38:17.265Z,100501.53
2023-04-27T10:40:45.750Z,100481.16
2023-04-27T10:43:14.911Z,100500.84
2023-04-27T10:45:42.645Z,100498.22
2023-04-27T10:48:16.708Z,100489.91
2023-04-27T10:50:47.116Z,100495.75
2023-04-27T10:53:15.521Z,100489.63
2023-04-27T10:55:42.845Z,100500.19
2023-04-27T10:58:10.127Z,100500.50
2023-04-27T11:00:41.591Z,100498.97
2023-04-27T11:03:33.826Z,100493.53
2023-04-27T11:06:04.881Z,100499.28
2023-04-27T11:08:43.878Z,100497.41
2023-04-27T11:11:16.545Z,100498.16
2023-04-27T11:13:44.749Z,100496.63
2023-04-27T11:16:12.087Z,100496.97
2023-04-27T11:18:39.374Z,100491.66
2023-04-27T11:21:10.963Z,100504.16
2023-04-27T11:23:38.832Z,100504.13
2023-04-27T11:26:18.198Z,100508.16
2023-04-27T11:29:01.032Z,100493.72
2023-04-27T11:31:29.233Z,100501.03
2023-04-27T11:33:56.625Z,100508.25
2023-04-27T11:36:24.447Z,100502.22
2023-04-27T11:38:57.380Z,100501.03
2023-04-27T11:41:37.010Z,100490.84
2023-04-27T11:44:07.871Z,100498.63
2023-04-27T11:46:38.618Z,100501.03
2023-04-27T11:49:06.427Z,100500.31
2023-04-27T11:51:33.880Z,100497.34
2023-04-27T11:54:07.357Z,100494.13
2023-04-27T11:56:38.645Z,100488.22
2023-04-27T11:59:06.121Z,100490.88
2023-04-27T12:01:38.221Z,100489.00
2023-04-27T12:04:11.285Z,100483.13
2023-04-27T12:06:38.972Z,100484.72
2023-04-27T12:09:06.361Z,100474.31
2023-04-27T12:11:33.640Z,100458.63
2023-04-27T12:14:02.179Z,100481.41
2023-04-27T12:16:29.567Z,100485.84
2023-04-27T12:18:59.385Z,100466.38
2023-04-27T12:21:26.720Z,100474.81
2023-04-27T12:23:54.272Z,100479.00
2023-04-27T12:26:21.587Z,100481.31
2023-04-27T12:28:48.893Z,100475.25
2023-04-27T12:31:24.674Z,100480.94
2023-04-27T12:33:54.114Z,100478.44
2023-04-27T12:36:21.594Z,100479.81
2023-04-27T12:38:49.036Z,100466.66
2023-04-27T12:41:16.429Z,100460.63
2023-04-27T12:43:45.865Z,100474.94
2023-04-27T12:46:13.201Z,100468.84
2023-04-27T12:48:41.198Z,100471.31
2023-04-27T12:51:08.980Z,100474.19
2023-04-27T12:53:36.685Z,100471.56
2023-04-27T12:56:04.633Z,100455.63
2023-04-27T12:58:32.060Z,100476.56
2023-04-27T13:00:59.339Z,100463.00
2023-04-27T13:03:26.752Z,100475.22
2023-04-27T13:05:54.331Z,100467.22
2023-04-27T13:08:21.659Z,100461.59
2023-04-27T13:10:48.963Z,100472.06
2023-04-27T13:13:16.295Z,100458.84
2023-04-27T13:15:43.702Z,100464.81
2023-04-27T13:18:11.639Z,100461.31
2023-04-27T13:20:39.016Z,100453.25
2023-04-27T13:23:06.698Z,100465.88
2023-04-27T13:25:36.442Z,100461.84
2023-04-27T13:28:03.724Z,100466.47
2023-04-27T13:30:31.853Z,100467.59
2023-04-27T13:33:10.495Z,100473.69
2023-04-27T13:35:46.136Z,100471.00
2023-04-27T13:38:13.406Z,100475.00
2023-04-27T13:40:40.660Z,100473.28
2023-04-27T13:43:08.002Z,100475.03
2023-04-27T13:45:35.384Z,100477.75
2023-04-27T13:48:02.818Z,100482.69
2023-04-27T13:50:30.338Z,100476.56
2023-04-27T13:52:57.593Z,100475.53
2023-04-27T13:55:25.002Z,100477.16
2023-04-27T13:57:52.247Z,100475.00
2023-04-27T14:00:20.145Z,100473.53
2023-04-27T14:02:47.549Z,100470.41
2023-04-27T14:05:14.882Z,100457.38
2023-04-27T14:07:42.221Z,100464.72
2023-04-27T14:10:09.865Z,100459.78
2023-04-27T14:12:37.285Z,100470.00
2023-04-27T14:15:04.967Z,100469.47
2023-04-27T14:17:32.412Z,100470.06
2023-04-27T14:19:59.656Z,100469.38
2023-04-27T14:22:26.962Z,100462.38
2023-04-27T14:24:56.437Z,100476.91
2023-04-27T14:27:23.776Z,100468.88
2023-04-27T14:29:51.004Z,100468.78
2023-04-27T14:32:20.643Z,100466.38
2023-04-27T14:34:47.999Z,100468.06
2023-04-27T14:37:15.331Z,100453.28
2023-04-27T14:39:45.129Z,100462.59
2023-04-27T14:42:12.709Z,100459.69
2023-04-27T14:44:40.003Z,100465.00
2023-04-27T14:47:07.328Z,100463.03
2023-04-27T14:49:34.654Z,100465.22
2023-04-27T14:52:04.749Z,100464.38
2023-04-27T14:54:32.375Z,100464.63
2023-04-27T14:57:01.177Z,100462.31
2023-04-27T14:59:29.005Z,100468.53
2023-04-27T15:01:56.337Z,100461.56
2023-04-27T15:04:23.821Z,100470.09
2023-04-27T15:06:51.805Z,100456.03
2023-04-27T15:09:19.238Z,100470.84
2023-04-27T15:11:46.819Z,100461.19
2023-04-27T15:14:14.096Z,100464.16
2023-04-27T15:16:41.350Z,100464.84
2023-04-27T15:19:08.617Z,100467.41
2023-04-27T15:21:35.956Z,100461.09
2023-04-27T15:24:03.456Z,100470.81
2023-04-27T15:26:30.821Z,100466.91
2023-04-27T15:28:59.491Z,100470.34
2023-04-27T15:31:26.829Z,100472.53
2023-04-27T15:33:54.732Z,100474.69
2023-04-27T15:36:23.066Z,100468.72
2023-04-27T15:38:51.982Z,100466.13
2023-04-27T15:41:19.354Z,100471.06
2023-04-27T15:43:47.540Z,100471.88
2023-04-27T15:46:15.700Z,100463.19
2023-04-27T15:48:43.046Z,100465.38
2023-04-27T15:51:10.645Z,100469.88
2023-04-27T15:53:38.082Z,100466.31
2023-04-27T15:56:05.679Z,100468.34
2023-04-27T15:58:33.096Z,100477.63
2023-04-27T16:01:00.570Z,100473.63
2023-04-27T16:03:28.055Z,100478.03
2023-04-27T16:05:55.511Z,100453.66
2023-04-27T16:08:22.932Z,100477.22
2023-04-27T16:10:50.582Z,100477.13
2023-04-27T16:13:18.027Z,100461.69
2023-04-27T16:15:45.403Z,100473.03
2023-04-27T16:18:12.767Z,100480.91
2023-04-27T16:20:40.261Z,100481.56
2023-04-27T16:23:07.629Z,100472.56
2023-04-27T16:25:34.972Z,100480.03
2023-04-27T16:28:02.268Z,100483.22
2023-04-27T16:30:29.500Z,100490.84
2023-04-27T16:32:56.904Z,100491.22
2023-04-27T16:35:24.177Z,100478.88
2023-04-27T16:37:51.477Z,100501.81
2023-04-27T16:40:18.796Z,100501.94
2023-04-27T16:42:46.754Z,100499.47
2023-04-27T16:45:14.047Z,100496.28
2023-04-27T16:47:41.886Z,100501.22
2023-04-27T16:50:09.766Z,100496.50
2023-04-27T16:52:37.118Z,100499.97
2023-04-27T16:55:04.727Z,100497.00
2023-04-27T16:57:32.030Z,100492.00
2023-04-27T17:00:00.354Z,100485.59
2023-04-27T17:02:27.832Z,100499.81
2023-04-27T17:04:55.974Z,100499.31
2023-04-27T17:07:23.317Z,100508.59
2023-04-27T17:09:50.625Z,100498.66
2023-04-27T17:12:17.996Z,100504.53
2023-04-27T17:14:45.477Z,100506.91
2023-04-27T17:17:12.760Z,100503.06
2023-04-27T17:19:40.096Z,100516.31
2023-04-27T17:22:10.805Z,100515.41
2023-04-27T17:24:38.466Z,100518.75
2023-04-27T17:27:05.726Z,100517.03
2023-04-27T17:29:33.011Z,100521.41
2023-04-27T17:32:00.347Z,100514.38
2023-04-27T17:34:27.623Z,100524.94
2023-04-27T17:36:54.906Z,100531.97
2023-04-27T17:39:22.790Z,100525.34
2023-04-27T17:41:50.202Z,100533.06
2023-04-27T17:44:17.577Z,100538.19
2023-04-27T17:46:48.733Z,100540.00
2023-04-27T17:49:17.051Z,100536.72
2023-04-27T17:51:44.806Z,100548.53
2023-04-27T17:54:12.389Z,100552.34
2023-04-27T17:56:39.724Z,100535.75
2023-04-27T17:59:07.808Z,100543.38
2023-04-27T18:01:35.304Z,100557.34
2023-04-27T18:04:04.610Z,100548.44
2023-04-27T18:06:32.436Z,100565.19
2023-04-27T18:08:59.794Z,100562.19
2023-04-27T18:11:27.046Z,100557.91
2023-04-27T18:13:54.918Z,100563.47
2023-04-27T18:16:22.594Z,100558.84
2023-04-27T18:18:49.910Z,100566.84
2023-04-27T18:21:17.186Z,100581.44
2023-04-27T18:23:44.823Z,100573.06
2023-04-27T18:26:12.214Z,100586.53
2023-04-27T18:28:41.706Z,100591.13
2023-04-27T18:31:18.606Z,100590.81
2023-04-27T18:33:46.070Z,100592.94
2023-04-27T18:36:13.617Z,100594.06
2023-04-27T18:38:40.912Z,100588.44
2023-04-27T18:41:08.227Z,100607.78
2023-04-27T18:43:36.627Z,100604.31
2023-04-27T18:46:04.496Z,100606.19
2023-04-27T18:48:32.466Z,100613.50
2023-04-27T18:50:59.798Z,100593.72
2023-04-27T18:53:27.220Z,100610.19
2023-04-27T18:55:54.488Z,100609.56
2023-04-27T18:58:21.800Z,100620.03
2023-04-27T19:00:49.088Z,100610.22
2023-04-27T19:03:16.584Z,100623.50
2023-04-27T19:05:44.647Z,100626.97
2023-04-27T19:08:11.986Z,100626.00
2023-04-27T19:10:41.610Z,100624.44
2023-04-27T19:13:08.931Z,100605.72
2023-04-27T19:15:36.215Z,100623.47
2023-04-27T19:18:10.469Z,100625.84
2023-04-27T19:20:39.346Z,100620.94
2023-04-27T19:23:08.035Z,100626.50
2023-04-27T19:25:35.515Z,100627.94
2023-04-27T19:28:02.765Z,100626.94
2023-04-27T19:30:30.167Z,100630.28
2023-04-27T19:32:57.676Z,100627.44
2023-04-27T19:35:26.517Z,100633.91
2023-04-27T19:37:53.868Z,100635.47
2023-04-27T19:40:21.509Z,100633.91
2023-04-27T19:42:49.770Z,100635.34
2023-04-27T19:45:18.085Z,100650.47
2023-04-27T19:47:46.102Z,100642.41
2023-04-27T19:50:13.497Z,100639.06
2023-04-27T19:52:40.954Z,100633.22
2023-04-27T19:55:08.573Z,100644.59
2023-04-27T19:57:36.486Z,100641.00
2023-04-27T20:00:07.984Z,100643.06
2023-04-27T20:02:40.416Z,100641.66
2023-04-27T20:05:08.582Z,100646.44
2023-04-27T20:07:37.455Z,100638.50
2023-04-27T20:10:05.702Z,100645.19
2023-04-27T20:12:51.478Z,100649.59
2023-04-27T20:15:20.472Z,100634.06
2023-04-27T20:17:47.986Z,100653.91
2023-04-27T20:20:15.410Z,100651.84
2023-04-27T20:22:42.832Z,100655.16
2023-04-27T20:25:10.692Z,100650.56
2023-04-27T20:27:38.015Z,100647.06
2023-04-27T20:30:05.878Z,100642.78
2023-04-27T20:32:33.234Z,100651.50
2023-04-27T20:35:02.567Z,100655.16
2023-04-27T20:37:30.368Z,100653.25
2023-04-27T20:41:13.440Z,100654.22
2023-04-27T20:43:44.705Z,100658.50
2023-04-27T20:46:12.456Z,100641.34
2023-04-27T20:48:39.821Z,100661.00
2023-04-27T20:51:07.152Z,100661.00
2023-04-27T20:53:34.387Z,100643.41
2023-04-27T20:56:02.441Z,100638.03
2023-04-27T20:58:29.697Z,100640.72
2023-04-27T21:00:57.129Z,100647.22
2023-04-27T21:03:24.629Z,100644.97
2023-04-27T21:05:52.156Z,100641.66
2023-04-27T21:08:19.412Z,100646.88
2023-04-27T21:10:46.875Z,100648.16
2023-04-27T21:13:14.252Z,100657.63
2023-04-27T21:15:41.465Z,100661.44
2023-04-27T21:18:16.058Z,100665.88
2023-04-27T21:20:50.237Z,100667.75
2023-04-27T21:23:17.829Z,100668.06
2023-04-27T21:25:45.838Z,100673.75
2023-04-27T21:28:13.447Z,100668.94
2023-04-27T21:30:40.924Z,100677.31
2023-04-27T21:33:08.251Z,100682.50
2023-04-27T21:35:35.569Z,100675.13
2023-04-27T21:38:02.827Z,100686.41
2023-04-27T21:40:30.066Z,100687.28
2023-04-27T21:42:57.333Z,100686.00
2023-04-27T21:45:24.655Z,100690.53
2023-04-27T21:47:51.977Z,100682.69
2023-04-27T21:50:19.329Z,100694.88
2023-04-27T21:52:46.648Z,100679.31
2023-04-27T21:55:13.919Z,100692.28
2023-04-27T21:57:41.185Z,100704.94
2023-04-27T22:00:13.891Z,100704.16
2023-04-27T22:02:48.503Z,100703.78
2023-04-27T22:05:16.397Z,100714.00
2023-04-27T22:07:45.912Z,100712.69
2023-04-27T22:10:13.228Z,100710.94
2023-04-27T22:12:40.481Z,100713.78
2023-04-27T22:15:08.222Z,100705.47
2023-04-27T22:17:35.690Z,100721.34
2023-04-27T22:20:05.006Z,100728.94
2023-04-27T22:22:32.288Z,100724.53
2023-04-27T22:24:59.702Z,100729.47
2023-04-27T22:27:35.132Z,100725.19
2023-04-27T22:30:06.646Z,100715.97
2023-04-27T22:32:33.931Z,100719.03
2023-04-27T22:35:01.427Z,100723.94
2023-04-27T22:37:29.721Z,100722.06
2023-04-27T22:39:57.150Z,100720.09
2023-04-27T22:42:25.849Z,100722.66
2023-04-27T22:44:53.055Z,100726.63
2023-04-27T22:47:20.355Z,100724.19
2023-04-27T22:49:48.460Z,100726.28
2023-04-27T22:52:16.635Z,100719.91
2023-04-27T22:54:43.931Z,100730.50
2023-04-27T22:57:11.432Z,100722.47
2023-04-27T22:59:38.725Z,100727.13
2023-04-27T23:02:06.185Z,100733.91
2023-04-27T23:04:33.812Z,100732.00
2023-04-27T23:07:01.064Z,100726.88
2023-04-27T23:09:28.306Z,100731.19
2023-04-27T23:11:57.831Z,100728.34
2023-04-27T23:14:25.180Z,100728.03
2023-04-27T23:16:52.502Z,100727.06
2023-04-27T23:19:19.751Z,100732.00
2023-04-27T23:21:46.970Z,100729.31
2023-04-27T23:24:14.518Z,100717.75
2023-04-27T23:26:42.041Z,100729.63
2023-04-27T23:29:09.305Z,100731.63
2023-04-27T23:31:36.919Z,100722.91
2023-04-27T23:34:04.440Z,100718.53
2023-04-27T23:36:31.683Z,100728.69
2023-04-27T23:38:58.935Z,100737.66
2023-04-27T23:41:26.207Z,100736.16
2023-04-27T23:43:53.462Z,100737.69
2023-04-27T23:46:20.848Z,100731.53
2023-04-27T23:48:48.141Z,100731.69
2023-04-27T23:51:15.491Z,100737.50
2023-04-27T23:53:42.760Z,100730.72
2023-04-27T23:56:17.866Z,100726.66
2023-04-27T23:58:45.418Z,100723.75
